sensor_id;sensor_type;location;lat;lon;timestamp;pressure;altitude;pressure_sealevel;temperature;humidity
49843;BME280;55559;48.898;9.184;2023-07-02T00:02:20;97821.50;;;16.40;100.00
49843;BME280;55559;48.898;9.184;2023-07-02T00:04:48;97823.22;;;16.47;100.00
49843;BME280;55559;48.898;9.184;2023-07-02T00:07:15;97820.72;;;16.46;100.00
49843;BME280;55559;48.898;9.184;2023-07-02T00:09:44;97819.63;;;16.40;100.00
49843;BME280;55559;48.898;9.184;2023-07-02T00:12:13;97822.75;;;16.44;100.00
49843;BME280;55559;48.898;9.184;2023-07-02T00:14:40;97826.69;;;16.41;100.00
49843;BME280;55559;48.898;9.184;2023-07-02T00:17:08;97837.34;;;16.34;100.00
49843;BME280;55559;48.898;9.184;2023-07-02T00:19:38;97839.09;;;16.27;100.00
49843;BME280;55559;48.898;9.184;2023-07-02T00:22:07;97840.31;;;16.25;100.00
49843;BME280;55559;48.898;9.184;2023-07-02T00:24:35;97842.28;;;16.16;100.00
49843;BME280;55559;48.898;9.184;2023-07-02T00:27:04;97842.63;;;16.13;100.00
49843;BME280;55559;48.898;9.184;2023-07-02T00:29:32;97838.00;;;16.07;100.00
49843;BME280;55559;48.898;9.184;2023-07-02T00:32:00;97837.56;;;16.03;100.00
49843;BME280;55559;48.898;9.184;2023-07-02T00:34:28;97831.94;;;15.98;100.00
49843;BME280;55559;48.898;9.184;2023-07-02T00:36:56;97834.16;;;15.94;100.00
49843;BME280;55559;48.898;9.184;2023-07-02T00:39:23;97832.28;;;15.95;100.00
49843;BME280;55559;48.898;9.184;2023-07-02T00:41:51;97832.19;;;16.03;100.00
49843;BME280;55559;48.898;9.184;2023-07-02T00:44:19;97830.91;;;15.99;100.00
49843;BME280;55559;48.898;9.184;2023-07-02T00:46:47;97832.19;;;16.03;100.00
49843;BME280;55559;48.898;9.184;2023-07-02T00:49:15;97837.09;;;15.99;100.00
49843;BME280;55559;48.898;9.184;2023-07-02T00:51:42;97840.97;;;15.97;100.00
49843;BME280;55559;48.898;9.184;2023-07-02T00:54:10;97846.06;;;15.92;100.00
49843;BME280;55559;48.898;9.184;2023-07-02T00:56:37;97849.03;;;15.97;100.00
49843;BME280;55559;48.898;9.184;2023-07-02T00:59:05;97842.66;;;15.98;100.00
49843;BME280;55559;48.898;9.184;2023-07-02T01:01:34;97839.44;;;15.88;100.00
49843;BME280;55559;48.898;9.184;2023-07-02T01:04:05;97841.66;;;15.84;100.00
49843;BME280;55559;48.898;9.184;2023-07-02T01:06:36;97845.97;;;15.85;100.00
49843;BME280;55559;48.898;9.184;2023-07-02T01:09:06;97839.78;;;15.85;100.00
49843;BME280;55559;48.898;9.184;2023-07-02T01:11:36;97833.97;;;15.81;100.00
49843;BME280;55559;48.898;9.184;2023-07-02T01:14:08;97836.66;;;15.81;100.00
49843;BME280;55559;48.898;9.184;2023-07-02T01:16:40;97846.28;;;15.90;100.00
49843;BME280;55559;48.898;9.184;2023-07-02T01:19:12;97835.25;;;15.85;100.00
49843;BME280;55559;48.898;9.184;2023-07-02T01:21:43;97846.38;;;15.82;100.00
49843;BME280;55559;48.898;9.184;2023-07-02T01:24:13;97838.16;;;15.84;100.00
49843;BME280;55559;48.898;9.184;2023-07-02T01:26:41;97847.09;;;15.91;100.00
49843;BME280;55559;48.898;9.184;2023-07-02T01:29:16;97841.91;;;15.89;100.00
49843;BME280;55559;48.898;9.184;2023-07-02T01:31:44;97838.16;;;15.84;100.00
49843;BME280;55559;48.898;9.184;2023-07-02T01:34:11;97846.28;;;15.90;100.00
49843;BME280;55559;48.898;9.184;2023-07-02T01:36:39;97856.06;;;15.83;100.00
49843;BME280;55559;48.898;9.184;2023-07-02T01:39:08;97853.75;;;15.95;100.00
49843;BME280;55559;48.898;9.184;2023-07-02T01:41:42;97855.41;;;15.96;100.00
49843;BME280;55559;48.898;9.184;2023-07-02T01:44:10;97847.84;;;15.99;100.00
49843;BME280;55559;48.898;9.184;2023-07-02T01:46:37;97842.09;;;16.03;100.00
49843;BME280;55559;48.898;9.184;2023-07-02T01:49:05;97848.09;;;16.05;100.00
49843;BME280;55559;48.898;9.184;2023-07-02T01:51:33;97846.91;;;16.07;100.00
49843;BME280;55559;48.898;9.184;2023-07-02T01:54:01;97849.31;;;16.02;100.00
49843;BME280;55559;48.898;9.184;2023-07-02T01:56:30;97845.16;;;15.99;100.00
49843;BME280;55559;48.898;9.184;2023-07-02T01:58:58;97844.88;;;15.94;100.00
49843;BME280;55559;48.898;9.184;2023-07-02T02:01:26;97831.75;;;15.85;100.00
49843;BME280;55559;48.898;9.184;2023-07-02T02:03:53;97833.25;;;15.87;100.00
49843;BME280;55559;48.898;9.184;2023-07-02T02:06:21;97832.22;;;15.88;100.00
49843;BME280;55559;48.898;9.184;2023-07-02T02:08:48;97833.44;;;15.86;100.00
49843;BME280;55559;48.898;9.184;2023-07-02T02:11:16;97845.25;;;15.91;100.00
49843;BME280;55559;48.898;9.184;2023-07-02T02:13:44;97840.25;;;15.88;100.00
49843;BME280;55559;48.898;9.184;2023-07-02T02:16:12;97845.16;;;15.85;100.00
49843;BME280;55559;48.898;9.184;2023-07-02T02:18:39;97852.28;;;15.92;100.00
49843;BME280;55559;48.898;9.184;2023-07-02T02:21:07;97852.56;;;15.97;100.00
49843;BME280;55559;48.898;9.184;2023-07-02T02:23:34;97857.72;;;15.99;100.00
49843;BME280;55559;48.898;9.184;2023-07-02T02:26:02;97857.16;;;16.04;100.00
49843;BME280;55559;48.898;9.184;2023-07-02T02:28:29;97854.97;;;16.07;100.00
49843;BME280;55559;48.898;9.184;2023-07-02T02:30:58;97857.50;;;16.15;100.00
49843;BME280;55559;48.898;9.184;2023-07-02T02:33:26;97851.97;;;16.17;100.00
49843;BME280;55559;48.898;9.184;2023-07-02T02:35:54;97851.31;;;16.15;100.00
49843;BME280;55559;48.898;9.184;2023-07-02T02:38:21;97855.69;;;16.16;100.00
49843;BME280;55559;48.898;9.184;2023-07-02T02:40:49;97846.03;;;16.22;100.00
49843;BME280;55559;48.898;9.184;2023-07-02T02:43:19;97847.72;;;16.23;100.00
49843;BME280;55559;48.898;9.184;2023-07-02T02:45:50;97841.41;;;16.15;100.00
49843;BME280;55559;48.898;9.184;2023-07-02T02:48:18;97847.91;;;16.21;100.00
49843;BME280;55559;48.898;9.184;2023-07-02T02:50:48;97851.03;;;16.25;100.00
49843;BME280;55559;48.898;9.184;2023-07-02T02:53:15;97859.72;;;16.27;100.00
49843;BME280;55559;48.898;9.184;2023-07-02T02:55:43;97855.19;;;16.27;100.00
49843;BME280;55559;48.898;9.184;2023-07-02T02:58:10;97858.53;;;16.29;100.00
49843;BME280;55559;48.898;9.184;2023-07-02T03:00:38;97860.09;;;16.24;100.00
49843;BME280;55559;48.898;9.184;2023-07-02T03:03:08;97871.09;;;16.29;100.00
49843;BME280;55559;48.898;9.184;2023-07-02T03:05:37;97861.13;;;16.23;100.00
49843;BME280;55559;48.898;9.184;2023-07-02T03:08:05;97882.31;;;16.03;100.00
49843;BME280;55559;48.898;9.184;2023-07-02T03:10:32;97888.41;;;16.11;100.00
49843;BME280;55559;48.898;9.184;2023-07-02T03:13:00;97890.66;;;16.08;100.00
49843;BME280;55559;48.898;9.184;2023-07-02T03:15:28;97896.28;;;15.98;100.00
49843;BME280;55559;48.898;9.184;2023-07-02T03:17:56;97904.25;;;15.68;100.00
49843;BME280;55559;48.898;9.184;2023-07-02T03:20:24;97895.94;;;15.63;100.00
49843;BME280;55559;48.898;9.184;2023-07-02T03:22:53;97907.22;;;15.58;100.00
49843;BME280;55559;48.898;9.184;2023-07-02T03:25:20;97913.94;;;15.54;100.00
49843;BME280;55559;48.898;9.184;2023-07-02T03:27:48;97906.94;;;15.53;100.00
49843;BME280;55559;48.898;9.184;2023-07-02T03:30:15;97910.69;;;15.44;100.00
49843;BME280;55559;48.898;9.184;2023-07-02T03:32:42;97905.16;;;15.46;100.00
49843;BME280;55559;48.898;9.184;2023-07-02T03:35:10;97921.13;;;15.39;100.00
49843;BME280;55559;48.898;9.184;2023-07-02T03:37:37;97914.94;;;15.38;100.00
49843;BME280;55559;48.898;9.184;2023-07-02T03:40:09;97918.50;;;15.31;100.00
49843;BME280;55559;48.898;9.184;2023-07-02T03:42:36;97920.31;;;15.38;100.00
49843;BME280;55559;48.898;9.184;2023-07-02T03:45:05;97920.84;;;15.34;100.00
49843;BME280;55559;48.898;9.184;2023-07-02T03:47:32;97920.72;;;15.27;100.00
49843;BME280;55559;48.898;9.184;2023-07-02T03:50:00;97927.69;;;15.36;100.00
49843;BME280;55559;48.898;9.184;2023-07-02T03:52:27;97927.19;;;15.33;100.00
49843;BME280;55559;48.898;9.184;2023-07-02T03:54:54;97936.50;;;15.45;100.00
49843;BME280;55559;48.898;9.184;2023-07-02T03:57:23;97938.50;;;15.43;100.00
49843;BME280;55559;48.898;9.184;2023-07-02T03:59:52;97945.56;;;15.59;100.00
49843;BME280;55559;48.898;9.184;2023-07-02T04:02:20;97943.50;;;15.46;100.00
49843;BME280;55559;48.898;9.184;2023-07-02T04:04:47;97947.59;;;15.57;100.00
49843;BME280;55559;48.898;9.184;2023-07-02T04:07:15;97947.03;;;15.61;100.00
49843;BME280;55559;48.898;9.184;2023-07-02T04:09:42;97947.56;;;15.42;100.00
49843;BME280;55559;48.898;9.184;2023-07-02T04:12:10;97945.72;;;15.42;100.00
49843;BME280;55559;48.898;9.184;2023-07-02T04:14:39;97947.31;;;15.52;100.00
49843;BME280;55559;48.898;9.184;2023-07-02T04:17:06;97957.94;;;15.45;100.00
49843;BME280;55559;48.898;9.184;2023-07-02T04:19:33;97950.78;;;15.37;100.00
49843;BME280;55559;48.898;9.184;2023-07-02T04:22:01;97952.56;;;15.45;100.00
49843;BME280;55559;48.898;9.184;2023-07-02T04:24:29;97952.91;;;15.42;100.00
49843;BME280;55559;48.898;9.184;2023-07-02T04:26:57;97952.84;;;15.50;100.00
49843;BME280;55559;48.898;9.184;2023-07-02T04:29:25;97952.78;;;15.58;100.00
49843;BME280;55559;48.898;9.184;2023-07-02T04:31:54;97946.03;;;15.62;100.00
49843;BME280;55559;48.898;9.184;2023-07-02T04:34:22;97952.16;;;15.71;100.00
49843;BME280;55559;48.898;9.184;2023-07-02T04:36:50;97953.66;;;15.74;100.00
49843;BME280;55559;48.898;9.184;2023-07-02T04:39:17;97954.06;;;15.86;100.00
49843;BME280;55559;48.898;9.184;2023-07-02T04:41:44;97960.72;;;15.90;100.00
49843;BME280;55559;48.898;9.184;2023-07-02T04:44:12;97957.56;;;15.86;100.00
49843;BME280;55559;48.898;9.184;2023-07-02T04:46:39;97955.19;;;16.06;100.00
49843;BME280;55559;48.898;9.184;2023-07-02T04:49:08;97962.41;;;15.91;100.00
49843;BME280;55559;48.898;9.184;2023-07-02T04:51:35;97956.28;;;15.97;100.00
49843;BME280;55559;48.898;9.184;2023-07-02T04:54:03;97961.28;;;16.00;100.00
49843;BME280;55559;48.898;9.184;2023-07-02T04:56:30;97964.63;;;15.87;100.00
49843;BME280;55559;48.898;9.184;2023-07-02T04:58:58;97971.66;;;16.03;100.00
49843;BME280;55559;48.898;9.184;2023-07-02T05:01:27;97964.63;;;16.17;100.00
49843;BME280;55559;48.898;9.184;2023-07-02T05:03:55;97979.44;;;16.28;100.00
49843;BME280;55559;48.898;9.184;2023-07-02T05:06:24;97981.66;;;16.09;100.00
49843;BME280;55559;48.898;9.184;2023-07-02T05:08:51;97978.22;;;16.30;100.00
49843;BME280;55559;48.898;9.184;2023-07-02T05:11:19;97982.50;;;16.40;100.00
49843;BME280;55559;48.898;9.184;2023-07-02T05:13:47;97983.22;;;16.63;100.00
49843;BME280;55559;48.898;9.184;2023-07-02T05:16:14;97982.34;;;16.78;100.00
49843;BME280;55559;48.898;9.184;2023-07-02T05:18:42;97983.66;;;16.97;100.00
49843;BME280;55559;48.898;9.184;2023-07-02T05:21:09;97987.72;;;16.92;100.00
49843;BME280;55559;48.898;9.184;2023-07-02T05:23:38;97984.66;;;16.96;100.00
49843;BME280;55559;48.898;9.184;2023-07-02T05:26:05;97988.16;;;16.96;100.00
49843;BME280;55559;48.898;9.184;2023-07-02T05:28:33;98001.94;;;17.08;100.00
49843;BME280;55559;48.898;9.184;2023-07-02T05:31:00;98007.16;;;16.95;100.00
49843;BME280;55559;48.898;9.184;2023-07-02T05:33:28;97993.53;;;16.81;100.00
49843;BME280;55559;48.898;9.184;2023-07-02T05:35:57;98004.78;;;16.85;100.00
49843;BME280;55559;48.898;9.184;2023-07-02T05:38:24;98005.88;;;16.76;100.00
49843;BME280;55559;48.898;9.184;2023-07-02T05:40:53;97997.00;;;16.75;100.00
49843;BME280;55559;48.898;9.184;2023-07-02T05:43:21;97998.63;;;16.76;100.00
49843;BME280;55559;48.898;9.184;2023-07-02T05:45:50;98015.63;;;17.13;100.00
49843;BME280;55559;48.898;9.184;2023-07-02T05:48:18;98009.22;;;17.29;100.00
49843;BME280;55559;48.898;9.184;2023-07-02T05:50:45;98004.09;;;16.98;100.00
49843;BME280;55559;48.898;9.184;2023-07-02T05:53:13;98005.34;;;17.17;100.00
49843;BME280;55559;48.898;9.184;2023-07-02T05:55:42;98013.72;;;17.07;100.00
49843;BME280;55559;48.898;9.184;2023-07-02T05:58:11;98008.81;;;16.81;100.00
49843;BME280;55559;48.898;9.184;2023-07-02T06:00:38;98020.78;;;16.78;100.00
49843;BME280;55559;48.898;9.184;2023-07-02T06:03:07;98019.94;;;16.63;100.00
49843;BME280;55559;48.898;9.184;2023-07-02T06:05:34;98028.38;;;16.89;100.00
49843;BME280;55559;48.898;9.184;2023-07-02T06:08:02;98030.41;;;17.02;100.00
49843;BME280;55559;48.898;9.184;2023-07-02T06:10:29;98032.34;;;17.30;100.00
49843;BME280;55559;48.898;9.184;2023-07-02T06:12:57;98023.88;;;17.70;100.00
49843;BME280;55559;48.898;9.184;2023-07-02T06:15:26;98021.53;;;19.28;100.00
49843;BME280;55559;48.898;9.184;2023-07-02T06:17:53;98026.59;;;19.71;100.00
49843;BME280;55559;48.898;9.184;2023-07-02T06:20:20;98023.94;;;20.11;95.41
49843;BME280;55559;48.898;9.184;2023-07-02T06:22:48;98022.91;;;19.79;95.19
49843;BME280;55559;48.898;9.184;2023-07-02T06:25:15;98021.88;;;19.05;100.00
49843;BME280;55559;48.898;9.184;2023-07-02T06:27:43;98025.53;;;20.45;94.01
49843;BME280;55559;48.898;9.184;2023-07-02T06:30:11;98030.88;;;21.31;88.26
49843;BME280;55559;48.898;9.184;2023-07-02T06:32:40;98034.13;;;19.14;100.00
49843;BME280;55559;48.898;9.184;2023-07-02T06:35:08;98038.50;;;19.97;96.30
49843;BME280;55559;48.898;9.184;2023-07-02T06:37:36;98037.63;;;19.01;100.00
49843;BME280;55559;48.898;9.184;2023-07-02T06:40:04;98042.22;;;18.72;100.00
49843;BME280;55559;48.898;9.184;2023-07-02T06:42:32;98053.13;;;17.58;100.00
49843;BME280;55559;48.898;9.184;2023-07-02T06:45:01;98051.63;;;18.55;100.00
49843;BME280;55559;48.898;9.184;2023-07-02T06:47:29;98036.81;;;19.01;100.00
49843;BME280;55559;48.898;9.184;2023-07-02T06:49:58;98041.78;;;20.25;94.17
49843;BME280;55559;48.898;9.184;2023-07-02T06:52:25;98045.06;;;20.61;90.51
49843;BME280;55559;48.898;9.184;2023-07-02T06:54:53;98035.13;;;19.95;93.48
49843;BME280;55559;48.898;9.184;2023-07-02T06:57:20;98050.31;;;20.16;90.87
49843;BME280;55559;48.898;9.184;2023-07-02T06:59:49;98043.41;;;18.98;98.42
49843;BME280;55559;48.898;9.184;2023-07-02T07:02:17;98052.94;;;19.62;95.75
49843;BME280;55559;48.898;9.184;2023-07-02T07:04:44;98053.34;;;19.59;93.73
49843;BME280;55559;48.898;9.184;2023-07-02T07:07:13;98050.94;;;19.98;91.83
49843;BME280;55559;48.898;9.184;2023-07-02T07:09:41;98043.81;;;20.63;87.89
49843;BME280;55559;48.898;9.184;2023-07-02T07:12:08;98047.19;;;20.05;91.37
49843;BME280;55559;48.898;9.184;2023-07-02T07:14:36;98041.94;;;19.64;90.97
49843;BME280;55559;48.898;9.184;2023-07-02T07:17:03;98065.72;;;19.33;91.24
49843;BME280;55559;48.898;9.184;2023-07-02T07:19:31;98049.03;;;19.72;92.18
49843;BME280;55559;48.898;9.184;2023-07-02T07:21:59;98053.50;;;18.83;100.00
49843;BME280;55559;48.898;9.184;2023-07-02T07:24:27;98062.66;;;18.95;94.23
49843;BME280;55559;48.898;9.184;2023-07-02T07:26:55;98046.69;;;19.48;88.28
49843;BME280;55559;48.898;9.184;2023-07-02T07:29:22;98045.44;;;19.51;89.22
49843;BME280;55559;48.898;9.184;2023-07-02T07:31:50;98047.59;;;19.89;86.33
49843;BME280;55559;48.898;9.184;2023-07-02T07:34:17;98049.88;;;19.10;90.39
49843;BME280;55559;48.898;9.184;2023-07-02T07:36:45;98046.66;;;19.42;87.42
49843;BME280;55559;48.898;9.184;2023-07-02T07:39:12;98066.47;;;18.72;91.96
49843;BME280;55559;48.898;9.184;2023-07-02T07:41:43;98050.75;;;19.18;88.95
49843;BME280;55559;48.898;9.184;2023-07-02T07:44:14;98060.28;;;19.95;82.36
49843;BME280;55559;48.898;9.184;2023-07-02T07:46:41;98060.19;;;19.55;82.58
49843;BME280;55559;48.898;9.184;2023-07-02T07:49:09;98053.22;;;19.94;80.12
49843;BME280;55559;48.898;9.184;2023-07-02T07:51:36;98041.22;;;19.22;81.08
49843;BME280;55559;48.898;9.184;2023-07-02T07:54:04;98063.28;;;19.52;80.02
49843;BME280;55559;48.898;9.184;2023-07-02T07:56:31;98056.72;;;19.75;81.88
49843;BME280;55559;48.898;9.184;2023-07-02T07:59:00;98074.53;;;19.69;79.59
49843;BME280;55559;48.898;9.184;2023-07-02T08:01:28;98061.06;;;19.76;78.62
49843;BME280;55559;48.898;9.184;2023-07-02T08:03:55;98054.03;;;19.88;76.67
49843;BME280;55559;48.898;9.184;2023-07-02T08:06:23;98056.53;;;20.10;79.70
49843;BME280;55559;48.898;9.184;2023-07-02T08:08:50;98059.03;;;19.98;77.73
49843;BME280;55559;48.898;9.184;2023-07-02T08:11:18;98049.69;;;19.80;79.52
49843;BME280;55559;48.898;9.184;2023-07-02T08:13:45;98053.00;;;20.42;77.24
49843;BME280;55559;48.898;9.184;2023-07-02T08:16:14;98065.22;;;20.52;75.37
49843;BME280;55559;48.898;9.184;2023-07-02T08:18:42;98055.59;;;20.83;71.88
49843;BME280;55559;48.898;9.184;2023-07-02T08:21:09;98051.31;;;20.35;74.08
49843;BME280;55559;48.898;9.184;2023-07-02T08:23:37;98057.31;;;19.70;77.24
49843;BME280;55559;48.898;9.184;2023-07-02T08:26:04;98061.72;;;19.84;76.19
49843;BME280;55559;48.898;9.184;2023-07-02T08:28:32;98079.34;;;20.40;74.14
49843;BME280;55559;48.898;9.184;2023-07-02T08:30:59;98065.03;;;20.00;75.11
49843;BME280;55559;48.898;9.184;2023-07-02T08:33:28;98062.94;;;20.35;73.99
49843;BME280;55559;48.898;9.184;2023-07-02T08:35:55;98062.47;;;20.92;71.95
49843;BME280;55559;48.898;9.184;2023-07-02T08:38:23;98060.41;;;20.74;69.14
49843;BME280;55559;48.898;9.184;2023-07-02T08:40:50;98069.19;;;20.36;70.24
49843;BME280;55559;48.898;9.184;2023-07-02T08:43:18;98076.22;;;20.77;69.71
49843;BME280;55559;48.898;9.184;2023-07-02T08:45:46;98063.72;;;20.76;68.54
49843;BME280;55559;48.898;9.184;2023-07-02T08:48:13;98064.47;;;21.10;66.25
49843;BME280;55559;48.898;9.184;2023-07-02T08:50:43;98053.94;;;20.88;67.56
49843;BME280;55559;48.898;9.184;2023-07-02T08:53:11;98069.91;;;21.03;65.09
49843;BME280;55559;48.898;9.184;2023-07-02T08:55:38;98058.22;;;21.09;65.67
49843;BME280;55559;48.898;9.184;2023-07-02T08:58:06;98064.56;;;20.90;66.53
49843;BME280;55559;48.898;9.184;2023-07-02T09:00:33;98061.72;;;20.44;67.68
49843;BME280;55559;48.898;9.184;2023-07-02T09:03:12;98053.09;;;20.88;67.92
49843;BME280;55559;48.898;9.184;2023-07-02T09:05:49;98065.38;;;20.84;67.75
49843;BME280;55559;48.898;9.184;2023-07-02T09:08:23;98074.38;;;20.51;69.87
49843;BME280;55559;48.898;9.184;2023-07-02T09:10:51;98070.63;;;20.05;70.83
49843;BME280;55559;48.898;9.184;2023-07-02T09:13:19;98068.28;;;20.89;66.34
49843;BME280;55559;48.898;9.184;2023-07-02T09:15:47;98068.06;;;21.42;66.22
49843;BME280;55559;48.898;9.184;2023-07-02T09:18:15;98072.97;;;21.59;63.26
49843;BME280;55559;48.898;9.184;2023-07-02T09:20:43;98080.56;;;21.36;63.80
49843;BME280;55559;48.898;9.184;2023-07-02T09:23:12;98069.31;;;20.88;64.53
49843;BME280;55559;48.898;9.184;2023-07-02T09:25:40;98073.88;;;20.94;65.79
49843;BME280;55559;48.898;9.184;2023-07-02T09:28:14;98069.97;;;20.90;66.31
49843;BME280;55559;48.898;9.184;2023-07-02T09:30:52;98068.72;;;20.59;67.79
49843;BME280;55559;48.898;9.184;2023-07-02T09:33:21;98069.47;;;20.99;66.84
49843;BME280;55559;48.898;9.184;2023-07-02T09:35:48;98079.69;;;21.88;64.25
49843;BME280;55559;48.898;9.184;2023-07-02T09:38:17;98076.78;;;21.44;63.59
49843;BME280;55559;48.898;9.184;2023-07-02T09:40:47;98066.97;;;21.88;61.65
49843;BME280;55559;48.898;9.184;2023-07-02T09:46:22;98084.94;;;20.45;68.33
49843;BME280;55559;48.898;9.184;2023-07-02T09:48:49;98078.03;;;21.48;63.92
49843;BME280;55559;48.898;9.184;2023-07-02T09:51:17;98068.66;;;21.51;62.26
49843;BME280;55559;48.898;9.184;2023-07-02T09:53:46;98072.19;;;20.99;65.00
49843;BME280;55559;48.898;9.184;2023-07-02T09:56:14;98059.25;;;21.60;60.58
49843;BME280;55559;48.898;9.184;2023-07-02T09:58:44;98061.50;;;22.71;57.53
49843;BME280;55559;48.898;9.184;2023-07-02T10:01:11;98057.09;;;22.01;58.47
49843;BME280;55559;48.898;9.184;2023-07-02T10:03:39;98062.03;;;22.36;58.49
49843;BME280;55559;48.898;9.184;2023-07-02T10:06:07;98067.47;;;21.40;60.53
49843;BME280;55559;48.898;9.184;2023-07-02T10:08:35;98057.66;;;21.84;59.81
49843;BME280;55559;48.898;9.184;2023-07-02T10:11:13;98070.31;;;21.84;59.25
49843;BME280;55559;48.898;9.184;2023-07-02T10:13:41;98060.56;;;21.83;58.81
49843;BME280;55559;48.898;9.184;2023-07-02T10:16:08;98044.56;;;22.75;55.41
49843;BME280;55559;48.898;9.184;2023-07-02T10:18:38;98057.94;;;22.26;56.99
49843;BME280;55559;48.898;9.184;2023-07-02T10:21:15;98051.69;;;22.70;57.76
49843;BME280;55559;48.898;9.184;2023-07-02T10:23:43;98048.91;;;23.32;55.87
49843;BME280;55559;48.898;9.184;2023-07-02T10:26:16;98047.69;;;22.54;58.86
49843;BME280;55559;48.898;9.184;2023-07-02T10:28:55;98047.66;;;22.79;56.85
49843;BME280;55559;48.898;9.184;2023-07-02T10:31:23;98046.56;;;22.18;60.08
49843;BME280;55559;48.898;9.184;2023-07-02T10:33:50;98042.97;;;21.67;59.84
49843;BME280;55559;48.898;9.184;2023-07-02T10:36:18;98042.56;;;21.63;60.14
49843;BME280;55559;48.898;9.184;2023-07-02T10:38:47;98044.94;;;23.16;55.79
49843;BME280;55559;48.898;9.184;2023-07-02T10:41:26;98034.78;;;23.11;56.40
49843;BME280;55559;48.898;9.184;2023-07-02T10:43:54;98040.72;;;23.50;56.41
49843;BME280;55559;48.898;9.184;2023-07-02T10:46:22;98044.03;;;23.83;52.11
49843;BME280;55559;48.898;9.184;2023-07-02T10:48:53;98043.66;;;22.38;57.54
49843;BME280;55559;48.898;9.184;2023-07-02T10:51:21;98045.53;;;22.99;55.45
49843;BME280;55559;48.898;9.184;2023-07-02T10:53:59;98038.69;;;23.15;54.62
49843;BME280;55559;48.898;9.184;2023-07-02T10:56:28;98040.72;;;23.20;54.44
49843;BME280;55559;48.898;9.184;2023-07-02T10:58:56;98035.56;;;24.03;52.09
49843;BME280;55559;48.898;9.184;2023-07-02T11:01:25;98026.03;;;24.71;50.20
49843;BME280;55559;48.898;9.184;2023-07-02T11:03:56;98042.34;;;24.36;50.42
49843;BME280;55559;48.898;9.184;2023-07-02T11:06:23;98042.19;;;23.95;52.60
49843;BME280;55559;48.898;9.184;2023-07-02T11:08:51;98049.81;;;22.52;58.23
49843;BME280;55559;48.898;9.184;2023-07-02T11:11:18;98048.53;;;22.91;57.80
49843;BME280;55559;48.898;9.184;2023-07-02T11:13:48;98044.03;;;23.52;54.29
49843;BME280;55559;48.898;9.184;2023-07-02T11:16:18;98055.31;;;22.63;56.83
49843;BME280;55559;48.898;9.184;2023-07-02T11:18:46;98052.84;;;22.99;56.06
49843;BME280;55559;48.898;9.184;2023-07-02T11:21:13;98057.19;;;22.81;58.45
49843;BME280;55559;48.898;9.184;2023-07-02T11:23:41;98044.38;;;23.56;55.28
49843;BME280;55559;48.898;9.184;2023-07-02T11:26:09;98049.50;;;22.97;57.49
49843;BME280;55559;48.898;9.184;2023-07-02T11:28:36;98042.66;;;23.31;54.72
49843;BME280;55559;48.898;9.184;2023-07-02T11:31:24;98032.06;;;23.11;56.28
49843;BME280;55559;48.898;9.184;2023-07-02T11:33:52;98046.78;;;23.34;55.11
49843;BME280;55559;48.898;9.184;2023-07-02T11:36:21;98029.66;;;23.64;55.35
49843;BME280;55559;48.898;9.184;2023-07-02T11:38:50;98043.50;;;24.16;52.90
49843;BME280;55559;48.898;9.184;2023-07-02T11:41:19;98028.09;;;23.86;53.59
49843;BME280;55559;48.898;9.184;2023-07-02T11:43:47;98041.72;;;24.10;52.35
49843;BME280;55559;48.898;9.184;2023-07-02T11:46:15;98036.03;;;24.11;52.95
49843;BME280;55559;48.898;9.184;2023-07-02T11:48:43;98028.03;;;24.64;51.03
49843;BME280;55559;48.898;9.184;2023-07-02T11:51:10;98025.03;;;24.89;49.94
49843;BME280;55559;48.898;9.184;2023-07-02T11:53:38;98018.47;;;24.49;49.09
49843;BME280;55559;48.898;9.184;2023-07-02T11:56:06;98016.50;;;25.38;46.98
49843;BME280;55559;48.898;9.184;2023-07-02T11:58:33;98022.59;;;25.57;46.88
49843;BME280;55559;48.898;9.184;2023-07-02T12:01:00;98033.47;;;24.40;50.35
49843;BME280;55559;48.898;9.184;2023-07-02T12:03:30;98022.31;;;23.22;54.26
49843;BME280;55559;48.898;9.184;2023-07-02T12:05:57;98028.00;;;23.02;54.82
49843;BME280;55559;48.898;9.184;2023-07-02T12:08:25;98030.16;;;23.72;52.05
49843;BME280;55559;48.898;9.184;2023-07-02T12:10:52;98021.38;;;23.89;51.95
49843;BME280;55559;48.898;9.184;2023-07-02T12:13:20;98022.84;;;24.39;51.01
49843;BME280;55559;48.898;9.184;2023-07-02T12:15:47;98024.94;;;24.13;51.84
49843;BME280;55559;48.898;9.184;2023-07-02T12:18:17;98014.31;;;24.35;51.03
49843;BME280;55559;48.898;9.184;2023-07-02T12:20:45;98025.88;;;22.67;55.15
49843;BME280;55559;48.898;9.184;2023-07-02T12:23:13;98012.91;;;23.97;49.09
49843;BME280;55559;48.898;9.184;2023-07-02T12:25:40;98019.72;;;23.88;47.88
49843;BME280;55559;48.898;9.184;2023-07-02T12:28:08;98007.59;;;24.14;47.35
49843;BME280;55559;48.898;9.184;2023-07-02T12:30:35;98001.78;;;25.22;44.88
49843;BME280;55559;48.898;9.184;2023-07-02T12:33:03;98015.25;;;24.88;45.09
49843;BME280;55559;48.898;9.184;2023-07-02T12:35:30;98011.81;;;23.86;46.37
49843;BME280;55559;48.898;9.184;2023-07-02T12:37:59;98006.19;;;25.11;44.78
49843;BME280;55559;48.898;9.184;2023-07-02T12:40:29;98007.84;;;25.12;43.95
49843;BME280;55559;48.898;9.184;2023-07-02T12:42:57;98011.03;;;25.67;43.28
49843;BME280;55559;48.898;9.184;2023-07-02T12:45:24;98002.63;;;25.11;44.74
49843;BME280;55559;48.898;9.184;2023-07-02T12:47:51;98007.16;;;25.05;43.21
49843;BME280;55559;48.898;9.184;2023-07-02T12:50:19;98009.19;;;24.98;42.34
49843;BME280;55559;48.898;9.184;2023-07-02T12:52:46;98010.91;;;24.40;44.12
49843;BME280;55559;48.898;9.184;2023-07-02T12:55:15;98003.91;;;25.32;43.19
49843;BME280;55559;48.898;9.184;2023-07-02T12:57:43;98009.63;;;24.66;44.03
49843;BME280;55559;48.898;9.184;2023-07-02T13:00:11;98005.13;;;24.60;43.95
49843;BME280;55559;48.898;9.184;2023-07-02T13:02:39;98006.03;;;24.54;43.34
49843;BME280;55559;48.898;9.184;2023-07-02T13:05:06;98003.38;;;24.94;42.57